sensor_id;sensor_type;location;lat;lon;timestamp;pressure;altitude;pressure_sealevel;temperature;humidity
6680;BME280;3376;42.664;23.346;2023-05-09T00:00:29;94821.47;;;14.36;100.00
6680;BME280;3376;42.664;23.346;2023-05-09T00:02:56;94824.06;;;14.36;100.00
6680;BME280;3376;42.664;23.346;2023-05-09T00:05:22;94827.66;;;14.35;100.00
6680;BME280;3376;42.664;23.346;2023-05-09T00:07:49;94821.78;;;14.27;100.00
6680;BME280;3376;42.664;23.346;2023-05-09T00:10:16;94823.06;;;14.37;100.00
6680;BME280;3376;42.664;23.346;2023-05-09T00:12:44;94821.47;;;14.36;100.00
6680;BME280;3376;42.664;23.346;2023-05-09T00:15:12;94828.69;;;14.34;100.00
6680;BME280;3376;42.664;23.346;2023-05-09T00:17:38;94827.81;;;14.27;100.00
6680;BME280;3376;42.664;23.346;2023-05-09T00:20:06;94805.81;;;14.08;100.00
6680;BME280;3376;42.664;23.346;2023-05-09T00:22:37;94799.56;;;14.03;100.00
6680;BME280;3376;42.664;23.346;2023-05-09T00:25:04;94825.56;;;14.24;100.00
6680;BME280;3376;42.664;23.346;2023-05-09T00:27:31;94819.28;;;14.12;100.00
6680;BME280;3376;42.664;23.346;2023-05-09T00:29:59;94817.63;;;14.11;100.00
6680;BME280;3376;42.664;23.346;2023-05-09T00:32:26;94808.00;;;14.05;100.00
6680;BME280;3376;42.664;23.346;2023-05-09T00:34:53;94812.44;;;14.11;100.00
6680;BME280;3376;42.664;23.346;2023-05-09T00:37:20;94673.22;;;13.31;100.00
6680;BME280;3376;42.664;23.346;2023-05-09T00:39:47;94815.28;;;14.16;100.00
6680;BME280;3376;42.664;23.346;2023-05-09T00:42:14;94806.78;;;14.07;100.00
6680;BME280;3376;42.664;23.346;2023-05-09T00:44:41;94815.88;;;14.18;100.00
6680;BME280;3376;42.664;23.346;2023-05-09T00:47:09;94806.47;;;14.17;100.00
6680;BME280;3376;42.664;23.346;2023-05-09T00:49:36;94817.75;;;14.24;100.00
6680;BME280;3376;42.664;23.346;2023-05-09T00:52:03;94823.31;;;14.21;100.00
6680;BME280;3376;42.664;23.346;2023-05-09T00:54:30;94790.38;;;14.07;100.00
6680;BME280;3376;42.664;23.346;2023-05-09T00:56:57;94816.13;;;14.23;100.00
6680;BME280;3376;42.664;23.346;2023-05-09T00:59:24;94811.56;;;14.04;100.00
6680;BME280;3376;42.664;23.346;2023-05-09T01:01:51;94820.00;;;14.06;100.00
6680;BME280;3376;42.664;23.346;2023-05-09T01:04:19;94814.91;;;13.91;100.00
6680;BME280;3376;42.664;23.346;2023-05-09T01:06:54;94783.09;;;13.75;100.00
6680;BME280;3376;42.664;23.346;2023-05-09T01:09:28;94821.91;;;13.91;100.00
6680;BME280;3376;42.664;23.346;2023-05-09T01:12:02;94820.72;;;13.93;100.00
6680;BME280;3376;42.664;23.346;2023-05-09T01:14:38;94819.91;;;13.93;100.00
6680;BME280;3376;42.664;23.346;2023-05-09T01:17:11;94819.59;;;14.02;100.00
6680;BME280;3376;42.664;23.346;2023-05-09T01:20:01;94817.22;;;14.07;100.00
6680;BME280;3376;42.664;23.346;2023-05-09T01:22:33;94797.22;;;13.87;100.00
6680;BME280;3376;42.664;23.346;2023-05-09T01:25:10;94790.66;;;13.91;100.00
6680;BME280;3376;42.664;23.346;2023-05-09T01:27:44;94819.50;;;14.17;100.00
6680;BME280;3376;42.664;23.346;2023-05-09T01:30:15;94817.09;;;14.15;100.00
6680;BME280;3376;42.664;23.346;2023-05-09T01:32:45;94803.41;;;14.07;100.00
6680;BME280;3376;42.664;23.346;2023-05-09T01:35:15;94804.75;;;14.03;100.00
6680;BME280;3376;42.664;23.346;2023-05-09T01:37:46;94813.59;;;14.02;100.00
6680;BME280;3376;42.664;23.346;2023-05-09T01:40:16;94805.50;;;13.97;100.00
6680;BME280;3376;42.664;23.346;2023-05-09T01:42:48;94810.91;;;13.95;100.00
6680;BME280;3376;42.664;23.346;2023-05-09T01:45:18;94806.75;;;14.01;100.00
6680;BME280;3376;42.664;23.346;2023-05-09T01:47:48;94812.97;;;14.00;100.00
6680;BME280;3376;42.664;23.346;2023-05-09T01:50:17;94815.19;;;14.03;100.00
6680;BME280;3376;42.664;23.346;2023-05-09T01:52:46;94798.47;;;13.91;100.00
6680;BME280;3376;42.664;23.346;2023-05-09T01:55:14;94822.50;;;14.14;100.00
6680;BME280;3376;42.664;23.346;2023-05-09T01:57:43;94821.72;;;14.20;100.00
6680;BME280;3376;42.664;23.346;2023-05-09T02:00:11;94797.53;;;13.98;100.00
6680;BME280;3376;42.664;23.346;2023-05-09T02:02:41;94820.25;;;14.11;100.00
6680;BME280;3376;42.664;23.346;2023-05-09T02:05:09;94814.69;;;14.14;100.00
6680;BME280;3376;42.664;23.346;2023-05-09T02:07:36;94822.09;;;14.17;100.00
6680;BME280;3376;42.664;23.346;2023-05-09T02:10:06;94822.50;;;14.14;100.00
6680;BME280;3376;42.664;23.346;2023-05-09T02:12:34;94819.63;;;14.09;100.00
6680;BME280;3376;42.664;23.346;2023-05-09T02:15:01;94809.50;;;13.93;100.00
6680;BME280;3376;42.664;23.346;2023-05-09T02:17:28;94819.19;;;14.05;100.00
6680;BME280;3376;42.664;23.346;2023-05-09T02:19:56;94815.66;;;14.13;100.00
6680;BME280;3376;42.664;23.346;2023-05-09T02:22:23;94789.84;;;13.90;100.00
6680;BME280;3376;42.664;23.346;2023-05-09T02:24:50;94804.00;;;14.09;100.00
6680;BME280;3376;42.664;23.346;2023-05-09T02:27:17;94818.44;;;14.11;100.00
6680;BME280;3376;42.664;23.346;2023-05-09T02:29:47;94813.63;;;14.08;100.00
6680;BME280;3376;42.664;23.346;2023-05-09T02:32:20;94809.97;;;14.03;100.00
6680;BME280;3376;42.664;23.346;2023-05-09T02:34:50;94804.75;;;14.03;100.00
6680;BME280;3376;42.664;23.346;2023-05-09T02:37:19;94809.13;;;13.96;100.00
6680;BME280;3376;42.664;23.346;2023-05-09T02:39:46;94807.13;;;13.98;100.00
6680;BME280;3376;42.664;23.346;2023-05-09T02:42:17;94800.28;;;13.97;100.00
6680;BME280;3376;42.664;23.346;2023-05-09T02:44:44;94811.53;;;13.97;100.00
6680;BME280;3376;42.664;23.346;2023-05-09T02:47:11;94806.50;;;13.96;100.00
6680;BME280;3376;42.664;23.346;2023-05-09T02:49:38;94807.13;;;13.98;100.00
6680;BME280;3376;42.664;23.346;2023-05-09T02:52:05;94806.75;;;14.01;100.00
6680;BME280;3376;42.664;23.346;2023-05-09T02:54:33;94813.19;;;14.05;100.00
6680;BME280;3376;42.664;23.346;2023-05-09T02:56:59;94816.78;;;14.04;100.00
6680;BME280;3376;42.664;23.346;2023-05-09T02:59:26;94817.16;;;14.01;100.00
6680;BME280;3376;42.664;23.346;2023-05-09T03:01:53;94811.09;;;13.94;100.00
6680;BME280;3376;42.664;23.346;2023-05-09T03:04:20;94812.38;;;14.04;100.00
6680;BME280;3376;42.664;23.346;2023-05-09T03:06:46;94825.69;;;14.16;100.00
6680;BME280;3376;42.664;23.346;2023-05-09T03:09:14;94828.38;;;14.23;100.00
6680;BME280;3376;42.664;23.346;2023-05-09T03:11:42;94829.16;;;14.23;100.00
6680;BME280;3376;42.664;23.346;2023-05-09T03:14:09;94837.44;;;14.27;100.00
6680;BME280;3376;42.664;23.346;2023-05-09T03:16:37;94830.34;;;14.21;100.00
6680;BME280;3376;42.664;23.346;2023-05-09T03:19:04;94831.41;;;14.26;100.00
6680;BME280;3376;42.664;23.346;2023-05-09T03:21:31;94830.16;;;14.22;100.00
6680;BME280;3376;42.664;23.346;2023-05-09T03:23:58;94844.06;;;14.29;100.00
6680;BME280;3376;42.664;23.346;2023-05-09T03:26:25;94852.50;;;14.31;100.00
6680;BME280;3376;42.664;23.346;2023-05-09T03:28:53;94862.94;;;14.31;100.00
6680;BME280;3376;42.664;23.346;2023-05-09T03:31:20;94856.22;;;14.22;100.00
6680;BME280;3376;42.664;23.346;2023-05-09T03:33:46;94858.72;;;14.30;100.00
6680;BME280;3376;42.664;23.346;2023-05-09T03:36:13;94860.13;;;14.33;100.00
6680;BME280;3376;42.664;23.346;2023-05-09T03:38:40;94839.66;;;14.30;100.00
6680;BME280;3376;42.664;23.346;2023-05-09T03:41:07;94871.28;;;14.48;100.00
6680;BME280;3376;42.664;23.346;2023-05-09T03:43:33;94868.25;;;14.44;100.00
6680;BME280;3376;42.664;23.346;2023-05-09T03:46:01;94873.59;;;14.36;100.00
6680;BME280;3376;42.664;23.346;2023-05-09T03:48:28;94873.53;;;14.30;100.00
6680;BME280;3376;42.664;23.346;2023-05-09T03:50:55;94730.09;;;13.34;100.00
6680;BME280;3376;42.664;23.346;2023-05-09T03:53:22;94862.16;;;14.16;100.00
6680;BME280;3376;42.664;23.346;2023-05-09T03:55:48;94872.34;;;14.11;100.00
6680;BME280;3376;42.664;23.346;2023-05-09T03:58:15;94839.13;;;13.92;100.00
6680;BME280;3376;42.664;23.346;2023-05-09T04:00:43;94879.81;;;14.14;100.00
6680;BME280;3376;42.664;23.346;2023-05-09T04:03:12;94873.59;;;14.15;100.00
6680;BME280;3376;42.664;23.346;2023-05-09T04:05:39;94839.31;;;13.90;100.00
6680;BME280;3376;42.664;23.346;2023-05-09T04:08:06;94866.59;;;14.15;100.00
6680;BME280;3376;42.664;23.346;2023-05-09T04:10:33;94877.25;;;14.21;100.00
6680;BME280;3376;42.664;23.346;2023-05-09T04:13:00;94878.81;;;14.15;100.00
6680;BME280;3376;42.664;23.346;2023-05-09T04:15:26;94869.50;;;14.06;100.00
6680;BME280;3376;42.664;23.346;2023-05-09T04:17:53;94866.81;;;13.93;100.00
6680;BME280;3376;42.664;23.346;2023-05-09T04:20:21;94713.25;;;13.09;100.00
6680;BME280;3376;42.664;23.346;2023-05-09T04:22:48;94874.97;;;14.11;100.00
6680;BME280;3376;42.664;23.346;2023-05-09T04:25:15;94877.22;;;14.14;100.00
6680;BME280;3376;42.664;23.346;2023-05-09T04:27:42;94875.09;;;14.24;100.00
6680;BME280;3376;42.664;23.346;2023-05-09T04:30:09;94862.78;;;14.39;100.00
6680;BME280;3376;42.664;23.346;2023-05-09T04:32:36;94860.88;;;14.54;100.00
6680;BME280;3376;42.664;23.346;2023-05-09T04:35:05;94883.06;;;14.78;100.00
6680;BME280;3376;42.664;23.346;2023-05-09T04:37:33;94872.69;;;14.84;100.00
6680;BME280;3376;42.664;23.346;2023-05-09T04:40:00;94880.78;;;14.96;100.00
6680;BME280;3376;42.664;23.346;2023-05-09T04:42:30;94847.38;;;14.78;100.00
6680;BME280;3376;42.664;23.346;2023-05-09T04:44:58;94880.59;;;14.97;100.00
6680;BME280;3376;42.664;23.346;2023-05-09T04:47:25;94877.81;;;15.05;100.00
6680;BME280;3376;42.664;23.346;2023-05-09T04:49:51;94854.91;;;14.94;100.00
6680;BME280;3376;42.664;23.346;2023-05-09T04:52:18;94883.25;;;15.10;100.00
6680;BME280;3376;42.664;23.346;2023-05-09T04:54:46;94885.25;;;15.08;100.00
6680;BME280;3376;42.664;23.346;2023-05-09T04:57:13;94880.38;;;14.92;100.00
6680;BME280;3376;42.664;23.346;2023-05-09T04:59:40;94890.09;;;15.11;100.00
6680;BME280;3376;42.664;23.346;2023-05-09T05:02:06;94883.53;;;15.22;100.00
6680;BME280;3376;42.664;23.346;2023-05-09T05:04:33;94886.78;;;15.37;100.00
6680;BME280;3376;42.664;23.346;2023-05-09T05:07:00;94892.28;;;15.49;99.45
6680;BME280;3376;42.664;23.346;2023-05-09T05:09:27;94886.66;;;15.58;96.51
6680;BME280;3376;42.664;23.346;2023-05-09T05:11:55;94880.69;;;15.71;95.39
6680;BME280;3376;42.664;23.346;2023-05-09T05:14:22;94888.31;;;15.66;95.35
6680;BME280;3376;42.664;23.346;2023-05-09T05:16:49;94885.09;;;15.64;95.13
6680;BME280;3376;42.664;23.346;2023-05-09T05:19:15;94880.25;;;15.61;94.48
6680;BME280;3376;42.664;23.346;2023-05-09T05:21:42;94885.69;;;15.66;93.03
6680;BME280;3376;42.664;23.346;2023-05-09T05:24:09;94882.47;;;15.64;93.77
6680;BME280;3376;42.664;23.346;2023-05-09T05:26:36;94886.09;;;15.63;92.96
6680;BME280;3376;42.664;23.346;2023-05-09T05:29:04;94881.91;;;15.68;91.31
6680;BME280;3376;42.664;23.346;2023-05-09T05:31:31;94885.69;;;15.66;91.19
6680;BME280;3376;42.664;23.346;2023-05-09T05:33:57;94862.75;;;15.55;90.95
6680;BME280;3376;42.664;23.346;2023-05-09T05:36:24;94891.47;;;15.48;92.54
6680;BME280;3376;42.664;23.346;2023-05-09T05:38:51;94900.94;;;15.56;92.46
6680;BME280;3376;42.664;23.346;2023-05-09T05:41:17;94891.47;;;15.55;93.45
6680;BME280;3376;42.664;23.346;2023-05-09T05:43:45;94895.94;;;15.61;93.59
6680;BME280;3376;42.664;23.346;2023-05-09T05:46:13;94892.34;;;15.68;92.44
6680;BME280;3376;42.664;23.346;2023-05-09T05:48:40;94837.22;;;15.44;92.16
6680;BME280;3376;42.664;23.346;2023-05-09T05:51:06;94894.78;;;15.89;90.63
6680;BME280;3376;42.664;23.346;2023-05-09T05:53:33;94891.97;;;15.91;91.08
6680;BME280;3376;42.664;23.346;2023-05-09T05:56:00;94887.34;;;15.86;91.47
6680;BME280;3376;42.664;23.346;2023-05-09T05:58:26;94882.13;;;15.80;90.69
6680;BME280;3376;42.664;23.346;2023-05-09T06:00:53;94888.31;;;15.79;90.63
6680;BME280;3376;42.664;23.346;2023-05-09T06:03:21;94852.13;;;15.63;89.95
6680;BME280;3376;42.664;23.346;2023-05-09T06:05:48;94896.59;;;15.89;91.02
6680;BME280;3376;42.664;23.346;2023-05-09T06:08:15;94900.59;;;15.85;89.37
6680;BME280;3376;42.664;23.346;2023-05-09T06:10:42;94899.16;;;15.63;91.47
6680;BME280;3376;42.664;23.346;2023-05-09T06:13:08;94897.28;;;15.44;92.95
6680;BME280;3376;42.664;23.346;2023-05-09T06:15:35;94808.47;;;14.83;92.94
6680;BME280;3376;42.664;23.346;2023-05-09T06:18:02;94896.88;;;15.47;93.53
6680;BME280;3376;42.664;23.346;2023-05-09T06:20:30;94894.91;;;15.62;93.04
6680;BME280;3376;42.664;23.346;2023-05-09T06:22:57;94890.31;;;15.70;91.59
6680;BME280;3376;42.664;23.346;2023-05-09T06:25:24;94800.38;;;15.19;91.02
6680;BME280;3376;42.664;23.346;2023-05-09T06:27:50;94905.22;;;15.83;90.70
6680;BME280;3376;42.664;23.346;2023-05-09T06:30:17;94890.72;;;15.74;90.39
6680;BME280;3376;42.664;23.346;2023-05-09T06:32:44;94901.16;;;15.61;90.67
6680;BME280;3376;42.664;23.346;2023-05-09T06:35:10;94907.19;;;15.61;90.47
6680;BME280;3376;42.664;23.346;2023-05-09T06:37:39;94893.50;;;15.59;91.61
6680;BME280;3376;42.664;23.346;2023-05-09T06:40:06;94896.94;;;15.60;90.68
6680;BME280;3376;42.664;23.346;2023-05-09T06:42:33;94881.84;;;15.55;89.15
6680;BME280;3376;42.664;23.346;2023-05-09T06:45:00;94902.56;;;15.63;89.25
6680;BME280;3376;42.664;23.346;2023-05-09T06:47:27;94896.13;;;15.66;88.13
6680;BME280;3376;42.664;23.346;2023-05-09T06:49:53;94899.56;;;15.73;87.27
6680;BME280;3376;42.664;23.346;2023-05-09T06:52:20;94723.94;;;14.58;86.46
6680;BME280;3376;42.664;23.346;2023-05-09T06:54:48;94902.19;;;15.73;85.10
6680;BME280;3376;42.664;23.346;2023-05-09T06:57:15;94901.00;;;15.82;83.17
6680;BME280;3376;42.664;23.346;2023-05-09T06:59:41;94903.22;;;15.85;81.77
6680;BME280;3376;42.664;23.346;2023-05-09T07:02:09;94907.63;;;15.91;81.35
6680;BME280;3376;42.664;23.346;2023-05-09T07:04:35;94899.81;;;15.91;82.24
6680;BME280;3376;42.664;23.346;2023-05-09T07:07:02;94897.63;;;16.01;81.76
6680;BME280;3376;42.664;23.346;2023-05-09T07:09:29;94899.22;;;15.95;81.70
6680;BME280;3376;42.664;23.346;2023-05-09T07:11:58;94872.66;;;15.72;81.77
6680;BME280;3376;42.664;23.346;2023-05-09T07:14:26;94899.78;;;15.84;82.68
6680;BME280;3376;42.664;23.346;2023-05-09T07:16:52;94894.78;;;15.83;83.63
6680;BME280;3376;42.664;23.346;2023-05-09T07:19:19;94882.72;;;15.82;83.61
6680;BME280;3376;42.664;23.346;2023-05-09T07:21:46;94795.84;;;15.41;83.31
6680;BME280;3376;42.664;23.346;2023-05-09T07:24:13;94898.41;;;16.08;83.94
6680;BME280;3376;42.664;23.346;2023-05-09T07:26:39;94882.53;;;16.03;83.23
6680;BME280;3376;42.664;23.346;2023-05-09T07:29:07;94897.22;;;16.17;80.78
6680;BME280;3376;42.664;23.346;2023-05-09T07:31:34;94896.44;;;16.23;79.55
6680;BME280;3376;42.664;23.346;2023-05-09T07:34:01;94898.66;;;16.26;79.31
6680;BME280;3376;42.664;23.346;2023-05-09T07:36:28;94899.66;;;16.31;78.49
6680;BME280;3376;42.664;23.346;2023-05-09T07:38:54;94903.06;;;16.25;79.31
6680;BME280;3376;42.664;23.346;2023-05-09T07:41:21;94900.84;;;16.29;79.22
6680;BME280;3376;42.664;23.346;2023-05-09T07:43:48;94906.69;;;16.31;79.53
6680;BME280;3376;42.664;23.346;2023-05-09T07:46:16;94910.53;;;16.35;78.47
6680;BME280;3376;42.664;23.346;2023-05-09T07:48:43;94911.09;;;16.37;78.27
6680;BME280;3376;42.664;23.346;2023-05-09T07:51:09;94903.47;;;16.35;78.41
6680;BME280;3376;42.664;23.346;2023-05-09T07:53:36;94905.28;;;16.35;78.26
6680;BME280;3376;42.664;23.346;2023-05-09T07:56:03;94906.28;;;16.34;77.98
6680;BME280;3376;42.664;23.346;2023-05-09T07:58:32;94904.06;;;16.44;78.82
6680;BME280;3376;42.664;23.346;2023-05-09T08:00:58;94884.38;;;16.35;78.81
6680;BME280;3376;42.664;23.346;2023-05-09T08:03:27;94902.91;;;16.47;79.18
6680;BME280;3376;42.664;23.346;2023-05-09T08:05:54;94888.59;;;16.49;79.84
6680;BME280;3376;42.664;23.346;2023-05-09T08:08:21;94894.44;;;16.38;79.45
6680;BME280;3376;42.664;23.346;2023-05-09T08:10:47;94900.44;;;16.32;79.89
6680;BME280;3376;42.664;23.346;2023-05-09T08:13:14;94898.44;;;16.40;78.50
6680;BME280;3376;42.664;23.346;2023-05-09T08:15:43;94885.97;;;16.16;77.90
6680;BME280;3376;42.664;23.346;2023-05-09T08:18:09;94894.63;;;16.30;78.05
6680;BME280;3376;42.664;23.346;2023-05-09T08:20:37;94880.75;;;16.23;78.18
6680;BME280;3376;42.664;23.346;2023-05-09T08:23:04;94903.88;;;16.39;78.19
6680;BME280;3376;42.664;23.346;2023-05-09T08:25:31;94900.06;;;16.41;77.48
6680;BME280;3376;42.664;23.346;2023-05-09T08:27:58;94898.47;;;16.60;75.73
6680;BME280;3376;42.664;23.346;2023-05-09T08:30:25;94894.44;;;16.64;76.46
6680;BME280;3376;42.664;23.346;2023-05-09T08:32:53;94894.41;;;16.77;76.42
6680;BME280;3376;42.664;23.346;2023-05-09T08:35:20;94895.41;;;16.89;76.58
6680;BME280;3376;42.664;23.346;2023-05-09T08:37:48;94886.34;;;16.85;76.37
6680;BME280;3376;42.664;23.346;2023-05-09T08:40:15;94899.63;;;16.84;76.83
6680;BME280;3376;42.664;23.346;2023-05-09T08:42:43;94893.19;;;16.86;77.43
6680;BME280;3376;42.664;23.346;2023-05-09T08:45:12;94894.00;;;16.80;77.59
6680;BME280;3376;42.664;23.346;2023-05-09T08:47:40;94881.94;;;16.66;77.59
6680;BME280;3376;42.664;23.346;2023-05-09T08:50:08;94895.41;;;16.83;76.08
6680;BME280;3376;42.664;23.346;2023-05-09T08:52:35;94883.88;;;17.10;93.78
6680;BME280;3376;42.664;23.346;2023-05-09T08:55:04;94744.19;;;16.47;82.24
6680;BME280;3376;42.664;23.346;2023-05-09T08:57:32;94890.22;;;17.46;78.95
6680;BME280;3376;42.664;23.346;2023-05-09T09:00:00;94875.75;;;17.31;77.40
6680;BME280;3376;42.664;23.346;2023-05-09T09:02:29;94889.03;;;17.36;76.82
6680;BME280;3376;42.664;23.346;2023-05-09T09:04:56;94882.75;;;17.37;79.91
6680;BME280;3376;42.664;23.346;2023-05-09T09:07:24;94878.50;;;17.42;75.61
6680;BME280;3376;42.664;23.346;2023-05-09T09:09:53;94870.41;;;17.57;74.38
6680;BME280;3376;42.664;23.346;2023-05-09T09:12:22;94894.78;;;17.95;75.90
6680;BME280;3376;42.664;23.346;2023-05-09T09:14:53;94883.47;;;17.95;74.44
6680;BME280;3376;42.664;23.346;2023-05-09T09:17:24;94885.03;;;18.33;71.53
6680;BME280;3376;42.664;23.346;2023-05-09T09:19:54;94889.09;;;18.29;70.96
6680;BME280;3376;42.664;23.346;2023-05-09T09:22:22;94894.88;;;18.13;73.23
6680;BME280;3376;42.664;23.346;2023-05-09T09:24:50;94898.38;;;18.01;71.65
6680;BME280;3376;42.664;23.346;2023-05-09T09:27:17;94891.91;;;18.03;73.25
6680;BME280;3376;42.664;23.346;2023-05-09T09:29:45;94893.63;;;17.85;73.58
6680;BME280;3376;42.664;23.346;2023-05-09T09:32:11;94898.47;;;17.88;72.47
6680;BME280;3376;42.664;23.346;2023-05-09T09:34:38;94892.34;;;17.63;73.58
6680;BME280;3376;42.664;23.346;2023-05-09T09:37:05;94892.38;;;17.56;74.43
6680;BME280;3376;42.664;23.346;2023-05-09T09:39:32;94900.72;;;17.27;75.20
6680;BME280;3376;42.664;23.346;2023-05-09T09:42:09;94898.16;;;17.07;76.26
6680;BME280;3376;42.664;23.346;2023-05-09T09:44:36;94896.44;;;16.88;76.92
6680;BME280;3376;42.664;23.346;2023-05-09T09:47:08;94903.88;;;16.65;77.29
6680;BME280;3376;42.664;23.346;2023-05-09T09:49:35;94896.03;;;16.32;78.76
6680;BME280;3376;42.664;23.346;2023-05-09T09:52:02;94895.63;;;16.22;79.38
6680;BME280;3376;42.664;23.346;2023-05-09T09:54:30;94906.28;;;16.21;80.51
6680;BME280;3376;42.664;23.346;2023-05-09T09:56:57;94906.09;;;16.22;80.61
6680;BME280;3376;42.664;23.346;2023-05-09T09:59:25;94903.69;;;16.27;80.51
6680;BME280;3376;42.664;23.346;2023-05-09T10:01:57;94902.84;;;16.33;79.05
6680;BME280;3376;42.664;23.346;2023-05-09T10:04:28;94900.44;;;16.32;79.81
6680;BME280;3376;42.664;23.346;2023-05-09T10:06:56;94904.66;;;16.13;80.86
6680;BME280;3376;42.664;23.346;2023-05-09T10:09:25;94895.41;;;16.04;80.67
6680;BME280;3376;42.664;23.346;2023-05-09T10:11:53;94889.38;;;16.17;82.06
6680;BME280;3376;42.664;23.346;2023-05-09T10:14:21;94885.56;;;16.32;81.62
6680;BME280;3376;42.664;23.346;2023-05-09T10:16:50;94687.97;;;15.33;80.76
6680;BME280;3376;42.664;23.346;2023-05-09T10:19:18;94871.09;;;16.69;79.58
6680;BME280;3376;42.664;23.346;2023-05-09T10:21:52;94860.63;;;16.69;77.74
6680;BME280;3376;42.664;23.346;2023-05-09T10:24:26;94881.72;;;16.87;78.93
6680;BME280;3376;42.664;23.346;2023-05-09T10:27:00;94890.97;;;16.83;77.96
6680;BME280;3376;42.664;23.346;2023-05-09T10:29:33;94892.00;;;16.82;78.70
6680;BME280;3376;42.664;23.346;2023-05-09T10:32:07;94890.00;;;16.71;79.93
6680;BME280;3376;42.664;23.346;2023-05-09T10:34:37;94889.41;;;16.69;78.31
6680;BME280;3376;42.664;23.346;2023-05-09T10:37:07;94872.31;;;16.21;80.88
6680;BME280;3376;42.664;23.346;2023-05-09T10:39:35;94889.53;;;15.83;84.22
6680;BME280;3376;42.664;23.346;2023-05-09T10:42:02;94887.34;;;15.73;84.86
6680;BME280;3376;42.664;23.346;2023-05-09T10:44:30;94888.72;;;15.76;85.44
6680;BME280;3376;42.664;23.346;2023-05-09T10:46:58;94879.91;;;15.77;85.60
6680;BME280;3376;42.664;23.346;2023-05-09T10:49:26;94885.97;;;15.97;84.47
6680;BME280;3376;42.664;23.346;2023-05-09T10:51:54;94837.28;;;15.83;83.46
6680;BME280;3376;42.664;23.346;2023-05-09T10:54:29;94893.63;;;16.18;83.41
6680;BME280;3376;42.664;23.346;2023-05-09T10:56:58;94890.00;;;16.32;83.28
6680;BME280;3376;42.664;23.346;2023-05-09T10:59:32;94880.34;;;16.39;82.08
6680;BME280;3376;42.664;23.346;2023-05-09T11:02:00;94886.56;;;16.25;82.63
6680;BME280;3376;42.664;23.346;2023-05-09T11:04:28;94863.03;;;16.18;82.43
6680;BME280;3376;42.664;23.346;2023-05-09T11:06:55;94865.88;;;16.30;82.64
6680;BME280;3376;42.664;23.346;2023-05-09T11:09:24;94890.81;;;16.32;83.44
6680;BME280;3376;42.664;23.346;2023-05-09T11:11:55;94892.81;;;16.17;83.22
6680;BME280;3376;42.664;23.346;2023-05-09T11:14:32;94899.03;;;15.97;84.71
6680;BME280;3376;42.664;23.346;2023-05-09T11:17:05;94891.19;;;15.97;85.08
6680;BME280;3376;42.664;23.346;2023-05-09T11:19:36;94873.31;;;16.07;83.57
6680;BME280;3376;42.664;23.346;2023-05-09T11:22:14;94885.38;;;16.21;83.61
6680;BME280;3376;42.664;23.346;2023-05-09T11:24:44;94732.72;;;15.24;83.17
6680;BME280;3376;42.664;23.346;2023-05-09T11:27:18;94894.84;;;16.35;81.32
6680;BME280;3376;42.664;23.346;2023-05-09T11:29:49;94893.19;;;16.40;79.60
6680;BME280;3376;42.664;23.346;2023-05-09T11:32:17;94884.78;;;16.45;80.04
6680;BME280;3376;42.664;23.346;2023-05-09T11:34:44;94888.22;;;16.52;79.43
6680;BME280;3376;42.664;23.346;2023-05-09T11:37:13;94862.63;;;16.41;79.32
6680;BME280;3376;42.664;23.346;2023-05-09T11:39:57;94884.16;;;16.56;78.57
6680;BME280;3376;42.664;23.346;2023-05-09T11:42:26;94888.38;;;16.31;80.37
6680;BME280;3376;42.664;23.346;2023-05-09T11:44:54;94863.63;;;16.33;81.08
6680;BME280;3376;42.664;23.346;2023-05-09T11:47:22;94877.53;;;16.60;79.45
6680;BME280;3376;42.664;23.346;2023-05-09T11:49:49;94891.63;;;16.66;78.14
6680;BME280;3376;42.664;23.346;2023-05-09T11:52:17;94869.91;;;16.52;79.54
6680;BME280;3376;42.664;23.346;2023-05-09T11:54:44;94884.59;;;16.53;79.78
6680;BME280;3376;42.664;23.346;2023-05-09T11:57:11;94878.53;;;16.66;78.93
6680;BME280;3376;42.664;23.346;2023-05-09T11:59:43;94888.34;;;16.83;77.23
6680;BME280;3376;42.664;23.346;2023-05-09T12:02:10;94885.16;;;16.75;76.83
6680;BME280;3376;42.664;23.346;2023-05-09T12:04:37;94867.88;;;16.54;76.96
6680;BME280;3376;42.664;23.346;2023-05-09T12:07:04;94878.75;;;16.51;79.14
6680;BME280;3376;42.664;23.346;2023-05-09T12:09:33;94883.97;;;16.44;78.51
6680;BME280;3376;42.664;23.346;2023-05-09T12:12:07;94877.53;;;16.34;79.86
6680;BME280;3376;42.664;23.346;2023-05-09T12:14:36;94885.34;;;16.40;79.79
6680;BME280;3376;42.664;23.346;2023-05-09T12:17:05;94870.88;;;16.25;80.15
6680;BME280;3376;42.664;23.346;2023-05-09T12:19:32;94884.97;;;16.24;80.49
6680;BME280;3376;42.664;23.346;2023-05-09T12:22:00;94885.19;;;16.16;81.39
6680;BME280;3376;42.664;23.346;2023-05-09T12:24:28;94886.75;;;15.91;81.95
6680;BME280;3376;42.664;23.346;2023-05-09T12:26:56;94884.72;;;15.73;83.56
6680;BME280;3376;42.664;23.346;2023-05-09T12:29:24;94881.84;;;15.55;84.31
6680;BME280;3376;42.664;23.346;2023-05-09T12:31:52;94872.91;;;15.37;85.20
6680;BME280;3376;42.664;23.346;2023-05-09T12:34:20;94892.97;;;15.29;85.51
6680;BME280;3376;42.664;23.346;2023-05-09T12:36:47;94881.25;;;15.12;87.39
6680;BME280;3376;42.664;23.346;2023-05-09T12:39:15;94876.56;;;14.95;87.98
6680;BME280;3376;42.664;23.346;2023-05-09T12:41:46;94880.75;;;14.89;89.52
6680;BME280;3376;42.664;23.346;2023-05-09T12:44:23;94853.44;;;14.51;90.59
6680;BME280;3376;42.664;23.346;2023-05-09T12:46:58;94880.56;;;14.57;91.18
6680;BME280;3376;42.664;23.346;2023-05-09T12:49:27;94880.19;;;14.32;92.92
6680;BME280;3376;42.664;23.346;2023-05-09T12:51:56;94838.69;;;14.09;94.42
6680;BME280;3376;42.664;23.346;2023-05-09T12:54:24;94833.06;;;13.85;96.45
6680;BME280;3376;42.664;23.346;2023-05-09T12:56:52;94862.94;;;14.10;97.06
6680;BME280;3376;42.664;23.346;2023-05-09T12:59:22;94832.31;;;13.91;97.19
6680;BME280;3376;42.664;23.346;2023-05-09T13:01:54;94839.63;;;14.02;97.13
6680;BME280;3376;42.664;23.346;2023-05-09T13:04:22;94840.81;;;13.99;97.48
6680;BME280;3376;42.664;23.346;2023-05-09T13:06:51;94846.06;;;14.06;98.67
6680;BME280;3376;42.664;23.346;2023-05-09T13:09:20;94845.09;;;14.07;98.57
6680;BME280;3376;42.664;23.346;2023-05-09T13:11:48;94713.03;;;13.25;98.85